createdAt,value
2018-01-12T00:00:51.834Z,99.99
2018-01-12T00:01:51.816Z,99.99
2018-01-12T00:02:51.759Z,99.99
2018-01-12T00:03:51.760Z,99.99
2018-01-12T00:04:51.722Z,99.99
2018-01-12T00:05:51.702Z,99.99
2018-01-12T00:06:51.689Z,99.99
2018-01-12T00:07:51.664Z,99.99
2018-01-12T00:08:51.650Z,99.99
2018-01-12T00:09:51.631Z,99.99
2018-01-12T00:10:51.645Z,99.99
2018-01-12T00:11:51.621Z,99.99
2018-01-12T00:12:51.574Z,99.99
2018-01-12T00:13:51.586Z,99.99
2018-01-12T00:14:51.564Z,99.99
2018-01-12T00:15:51.512Z,99.99
2018-01-12T00:16:51.496Z,99.45
2018-01-12T00:17:51.477Z,99.55
2018-01-12T00:18:51.473Z,98.20
2018-01-12T00:19:51.438Z,98.39
2018-01-12T00:20:51.451Z,99.26
2018-01-12T00:21:51.433Z,99.55
2018-01-12T00:22:51.418Z,98.63
2018-01-12T00:23:51.394Z,98.39
2018-01-12T00:24:51.374Z,98.10
2018-01-12T00:25:51.322Z,99.16
2018-01-12T00:26:51.299Z,99.45
2018-01-12T00:27:51.303Z,99.99
2018-01-12T00:28:51.277Z,99.45
2018-01-12T00:29:51.810Z,99.99
2018-01-12T00:30:51.258Z,99.93
2018-01-12T00:31:51.206Z,99.99
2018-01-12T00:32:51.217Z,99.99
2018-01-12T00:33:51.202Z,99.99
2018-01-12T00:34:51.145Z,99.99
2018-01-12T00:35:51.166Z,99.93
2018-01-12T00:36:51.661Z,99.55
2018-01-12T00:37:51.088Z,99.99
2018-01-12T00:38:51.073Z,98.00
2018-01-12T00:39:51.051Z,98.10
2018-01-12T00:40:51.047Z,96.75
2018-01-12T00:41:51.014Z,96.27
2018-01-12T00:42:50.995Z,96.27
2018-01-12T00:43:50.991Z,95.36
2018-01-12T00:44:50.955Z,96.46
2018-01-12T00:45:50.942Z,96.27
2018-01-12T00:46:50.915Z,96.51
2018-01-12T00:47:50.894Z,97.19
2018-01-12T00:48:50.876Z,97.19
2018-01-12T00:49:50.874Z,97.38
2018-01-12T00:50:50.834Z,98.34
2018-01-12T00:51:50.819Z,98.72
2018-01-12T00:52:50.796Z,99.11
2018-01-12T00:53:50.779Z,99.11
2018-01-12T00:54:50.772Z,99.40
2018-01-12T00:55:50.757Z,99.50
2018-01-12T00:56:50.738Z,99.02
2018-01-12T00:57:50.704Z,98.92
2018-01-12T00:58:50.684Z,99.88
2018-01-12T00:59:50.678Z,99.69
2018-01-12T01:00:50.668Z,99.69
2018-01-12T01:01:50.625Z,99.99
2018-01-12T01:02:50.606Z,99.99
2018-01-12T01:04:23.795Z,99.99
2018-01-12T01:04:50.569Z,99.99
2018-01-12T01:05:50.572Z,99.99
2018-01-12T01:06:50.550Z,99.99
2018-01-12T01:07:50.507Z,99.99
2018-01-12T01:08:50.488Z,99.99
2018-01-12T01:09:50.494Z,99.99
2018-01-12T01:10:50.448Z,99.99
2018-01-12T01:11:50.428Z,99.99
2018-01-12T01:12:50.486Z,99.99
2018-01-12T01:13:50.391Z,99.99
2018-01-12T01:14:50.400Z,99.99
2018-01-12T01:15:50.352Z,99.99
2018-01-12T01:16:50.328Z,99.99
2018-01-12T01:17:50.313Z,99.99
2018-01-12T01:18:50.315Z,99.99
2018-01-12T01:19:50.267Z,99.99
2018-01-12T01:20:50.247Z,99.99
2018-01-12T01:21:50.244Z,99.99
2018-01-12T01:22:50.239Z,99.99
2018-01-12T01:23:50.191Z,99.99
2018-01-12T01:24:50.175Z,99.99
2018-01-12T01:25:50.182Z,99.99
2018-01-12T01:26:50.161Z,99.99
2018-01-12T01:27:50.115Z,99.99
2018-01-12T01:28:50.121Z,99.99
2018-01-12T01:29:50.100Z,99.99
2018-01-12T01:30:50.062Z,99.99
2018-01-12T01:31:50.035Z,99.99
2018-01-12T01:32:50.031Z,99.99
2018-01-12T01:33:49.996Z,99.99
2018-01-12T01:34:49.982Z,99.99
2018-01-12T01:35:49.985Z,99.99
2018-01-12T01:36:49.946Z,99.99
2018-01-12T01:37:50.483Z,99.99
2018-01-12T01:38:49.903Z,99.99
2018-01-12T01:39:49.907Z,99.99
2018-01-12T01:40:49.858Z,99.99
2018-01-12T01:41:49.854Z,99.99
2018-01-12T01:42:49.832Z,99.99
2018-01-12T01:43:49.805Z,99.99
2018-01-12T01:44:49.784Z,99.99
2018-01-12T01:45:49.777Z,99.99
2018-01-12T01:46:49.774Z,99.99
2018-01-12T01:47:49.720Z,99.99
2018-01-12T01:48:49.710Z,99.99
2018-01-12T01:49:49.700Z,99.99
2018-01-12T01:50:49.692Z,99.99
2018-01-12T01:51:49.654Z,99.99
2018-01-12T01:52:49.658Z,99.99
2018-01-12T01:53:50.061Z,99.99
2018-01-12T01:54:49.587Z,99.99
2018-01-12T01:55:49.600Z,99.99
2018-01-12T01:56:49.580Z,99.99
2018-01-12T01:57:49.531Z,99.99
2018-01-12T01:58:49.517Z,99.99
2018-01-12T01:59:49.514Z,99.99
2018-01-12T02:00:49.480Z,99.99
2018-01-12T02:01:49.449Z,99.99
2018-01-12T02:02:49.431Z,99.99
2018-01-12T02:03:49.454Z,99.99
2018-01-12T02:04:49.402Z,99.99
2018-01-12T02:05:49.373Z,99.99
2018-01-12T02:06:49.362Z,99.99
2018-01-12T02:07:49.347Z,99.99
2018-01-12T02:08:49.322Z,99.99
2018-01-12T02:09:49.295Z,99.99
2018-01-12T02:10:49.301Z,99.99
2018-01-12T02:11:49.257Z,99.99
2018-01-12T02:12:49.269Z,99.99
2018-01-12T02:13:49.243Z,99.99
2018-01-12T02:14:49.209Z,99.99
2018-01-12T02:15:49.205Z,99.99
2018-01-12T02:16:49.162Z,99.99
2018-01-12T02:17:49.143Z,99.99
2018-01-12T02:18:49.148Z,99.99
2018-01-12T02:19:49.129Z,99.99
2018-01-12T02:20:49.090Z,99.99
2018-01-12T02:21:49.089Z,99.99
2018-01-12T02:22:49.044Z,99.99
2018-01-12T02:23:49.026Z,99.99
2018-01-12T02:24:49.030Z,99.99
2018-01-12T02:25:48.986Z,99.99
2018-01-12T02:26:48.962Z,99.99
2018-01-12T02:27:48.951Z,99.99
2018-01-12T02:28:48.951Z,99.99
2018-01-12T02:29:48.929Z,99.99
2018-01-12T02:30:48.881Z,99.99
2018-01-12T02:31:48.892Z,99.99
2018-01-12T02:32:48.858Z,99.99
2018-01-12T02:33:48.850Z,99.99
2018-01-12T02:34:48.813Z,99.99
2018-01-12T02:35:48.783Z,99.99
2018-01-12T02:36:48.780Z,99.99
2018-01-12T02:37:48.758Z,99.99
2018-01-12T02:38:48.727Z,99.99
2018-01-12T02:39:48.701Z,99.99
2018-01-12T02:40:48.689Z,99.99
2018-01-12T02:41:48.676Z,99.99
2018-01-12T02:42:48.675Z,99.99
2018-01-12T02:43:48.639Z,99.99
2018-01-12T02:44:49.174Z,99.99
2018-01-12T02:45:48.598Z,99.99
2018-01-12T02:46:48.578Z,99.99
2018-01-12T02:47:48.556Z,99.99
2018-01-12T02:48:48.553Z,99.99
2018-01-12T02:49:48.508Z,99.99
2018-01-12T02:50:48.523Z,99.99
2018-01-12T02:51:48.501Z,99.99
2018-01-12T02:52:48.478Z,99.99
2018-01-12T02:53:48.453Z,99.99
2018-01-12T02:54:48.435Z,99.99
2018-01-12T02:55:48.437Z,99.99
2018-01-12T02:56:48.399Z,99.99
2018-01-12T02:57:48.352Z,99.99
2018-01-12T02:58:48.332Z,99.99
2018-01-12T02:59:48.315Z,99.99
2018-01-12T03:00:48.288Z,99.99
2018-01-12T03:01:48.294Z,99.99
2018-01-12T03:02:48.252Z,99.99
2018-01-12T03:03:48.237Z,99.99
2018-01-12T03:04:48.780Z,99.99
2018-01-12T03:06:21.401Z,99.99
2018-01-12T03:06:48.171Z,99.99
2018-01-12T03:07:48.176Z,99.99
2018-01-12T03:08:48.160Z,99.99
2018-01-12T03:09:48.112Z,99.99
2018-01-12T03:10:48.114Z,99.99
2018-01-12T03:11:48.082Z,99.99
2018-01-12T03:12:48.050Z,99.99
2018-01-12T03:13:48.056Z,99.99
2018-01-12T03:14:48.039Z,99.99
2018-01-12T03:15:48.014Z,99.99
2018-01-12T03:16:47.993Z,99.99
2018-01-12T03:17:47.944Z,99.99
2018-01-12T03:18:47.929Z,99.99
2018-01-12T03:19:47.902Z,99.99
2018-01-12T03:20:47.910Z,99.99
2018-01-12T03:21:47.876Z,99.99
2018-01-12T03:22:47.841Z,99.99
2018-01-12T03:23:47.829Z,99.99
2018-01-12T03:24:47.837Z,99.99
2018-01-12T03:25:47.791Z,99.99
2018-01-12T03:26:47.772Z,99.99
2018-01-12T03:27:47.744Z,99.99
2018-01-12T03:28:47.727Z,99.99
2018-01-12T03:29:47.712Z,99.99
2018-01-12T03:30:47.694Z,99.99
2018-01-12T03:31:47.696Z,99.99
2018-01-12T03:32:47.672Z,99.99
2018-01-12T03:33:47.653Z,99.99
2018-01-12T03:34:47.630Z,99.99
2018-01-12T03:35:48.148Z,99.99
2018-01-12T03:36:47.591Z,99.99
2018-01-12T03:37:47.551Z,99.99
2018-01-12T03:38:47.527Z,99.99
2018-01-12T03:39:47.532Z,99.99
2018-01-12T03:40:47.510Z,99.99
2018-01-12T03:41:47.490Z,99.99
2018-01-12T03:42:47.590Z,99.99
2018-01-12T03:43:47.429Z,99.99
2018-01-12T03:44:47.408Z,99.99
2018-01-12T03:45:47.404Z,99.99
2018-01-12T03:46:47.370Z,99.99
2018-01-12T03:47:47.345Z,99.99
2018-01-12T03:48:47.322Z,99.99
2018-01-12T03:49:47.331Z,99.99
2018-01-12T03:50:47.286Z,99.99
2018-01-12T03:51:47.290Z,99.99
2018-01-12T03:52:47.270Z,99.99
2018-01-12T03:53:47.253Z,99.99
2018-01-12T03:54:47.216Z,99.99
2018-01-12T03:55:47.185Z,99.99
2018-01-12T03:56:47.189Z,99.99
2018-01-12T03:57:47.148Z,99.99
2018-01-12T03:58:47.133Z,99.99
2018-01-12T03:59:47.118Z,99.99
2018-01-12T04:00:47.082Z,99.99
2018-01-12T04:01:47.073Z,99.99
2018-01-12T04:02:47.047Z,99.99
2018-01-12T04:03:47.026Z,99.99
2018-01-12T04:04:47.029Z,99.99
2018-01-12T04:05:47.009Z,99.99
2018-01-12T04:06:47.457Z,99.99
2018-01-12T04:07:46.957Z,99.99
2018-01-12T04:08:46.927Z,99.99
2018-01-12T04:09:46.911Z,99.99
2018-01-12T04:10:46.880Z,99.99
2018-01-12T04:11:46.871Z,99.99
2018-01-12T04:12:46.842Z,99.99
2018-01-12T04:13:46.825Z,99.99
2018-01-12T04:14:46.811Z,99.99
2018-01-12T04:15:46.797Z,99.99
2018-01-12T04:16:46.781Z,99.99
2018-01-12T04:17:46.746Z,99.99
2018-01-12T04:18:46.751Z,99.99
2018-01-12T04:19:46.732Z,99.99
2018-01-12T04:20:46.685Z,99.99
2018-01-12T04:21:46.688Z,99.99
2018-01-12T04:22:46.667Z,99.99
2018-01-12T04:23:46.620Z,99.99
2018-01-12T04:24:46.634Z,99.99
2018-01-12T04:25:46.613Z,99.99
2018-01-12T04:26:46.574Z,99.99
2018-01-12T04:27:46.552Z,99.99
2018-01-12T04:28:46.548Z,99.99
2018-01-12T04:29:46.500Z,99.99
2018-01-12T04:30:46.493Z,99.99
2018-01-12T04:31:46.459Z,99.99
2018-01-12T04:32:46.471Z,99.99
2018-01-12T04:33:46.435Z,99.99
2018-01-12T04:34:46.404Z,99.99
2018-01-12T04:35:46.379Z,99.99
2018-01-12T04:36:46.365Z,99.99
2018-01-12T04:37:46.362Z,99.99
2018-01-12T04:38:46.320Z,99.99
2018-01-12T04:39:46.300Z,99.99
2018-01-12T04:40:46.282Z,99.99
2018-01-12T04:42:19.471Z,99.99
2018-01-12T04:42:46.264Z,99.99
2018-01-12T04:43:46.218Z,99.99
2018-01-12T04:44:46.223Z,99.99
2018-01-12T04:45:46.207Z,99.99
2018-01-12T04:46:46.154Z,99.99
2018-01-12T04:47:46.159Z,99.99
2018-01-12T04:48:46.122Z,99.99
2018-01-12T04:49:46.108Z,99.99
2018-01-12T04:50:46.101Z,99.99
2018-01-12T04:51:46.051Z,99.99
2018-01-12T04:52:46.057Z,99.99
2018-01-12T04:53:46.037Z,99.99
2018-01-12T04:54:45.993Z,99.99
2018-01-12T04:55:45.972Z,99.99
2018-01-12T04:56:45.960Z,99.99
2018-01-12T04:57:45.962Z,99.99
2018-01-12T04:58:45.939Z,99.99
2018-01-12T04:59:45.898Z,99.99
2018-01-12T05:00:45.902Z,99.99
2018-01-12T05:01:45.878Z,99.99
2018-01-12T05:02:45.858Z,99.99
2018-01-12T05:03:45.807Z,99.99
2018-01-12T05:04:45.799Z,99.99
2018-01-12T05:05:45.768Z,99.99
2018-01-12T05:06:45.774Z,99.99
2018-01-12T05:07:45.727Z,99.99
2018-01-12T05:08:45.732Z,99.99
2018-01-12T05:09:45.712Z,99.99
2018-01-12T05:10:45.666Z,99.99
2018-01-12T05:11:45.672Z,99.99
2018-01-12T05:12:45.625Z,99.99
2018-01-12T05:13:45.612Z,99.99
2018-01-12T05:14:45.588Z,99.99
2018-01-12T05:15:45.589Z,99.99
2018-01-12T05:16:45.555Z,99.99
2018-01-12T05:17:45.526Z,99.99
2018-01-12T05:18:45.504Z,99.99
2018-01-12T05:19:45.590Z,99.99
2018-01-12T05:20:45.463Z,99.99
2018-01-12T05:21:45.451Z,99.99
2018-01-12T05:22:45.653Z,99.99
2018-01-12T05:23:45.430Z,99.99
2018-01-12T05:24:45.384Z,99.99
2018-01-12T05:25:45.386Z,99.99
2018-01-12T05:26:45.341Z,99.99
2018-01-12T05:27:45.355Z,99.99
2018-01-12T05:28:45.313Z,99.99
2018-01-12T05:29:45.295Z,99.99
2018-01-12T05:30:45.260Z,99.99
2018-01-12T05:31:45.241Z,99.99
2018-01-12T05:32:45.222Z,99.99
2018-01-12T05:33:45.204Z,99.99
2018-01-12T05:34:45.176Z,99.99
2018-01-12T05:35:45.186Z,99.99
2018-01-12T05:36:45.138Z,99.99
2018-01-12T05:37:45.123Z,99.99
2018-01-12T05:38:45.093Z,99.99
2018-01-12T05:39:45.079Z,99.99
2018-01-12T05:40:45.068Z,99.99
2018-01-12T05:41:45.032Z,99.99
2018-01-12T05:42:45.020Z,99.99
2018-01-12T05:43:45.024Z,99.99
2018-01-12T05:44:45.005Z,99.99
2018-01-12T05:45:44.961Z,99.99
2018-01-12T05:46:44.964Z,99.99
2018-01-12T05:47:44.943Z,99.99
2018-01-12T05:48:44.919Z,99.99
2018-01-12T05:49:44.868Z,99.99
2018-01-12T05:50:44.865Z,99.99
2018-01-12T05:51:44.846Z,99.99
2018-01-12T05:52:44.815Z,99.99
2018-01-12T05:53:44.807Z,99.99
2018-01-12T05:54:44.766Z,99.99
2018-01-12T05:55:44.754Z,99.99
2018-01-12T05:56:44.739Z,99.99
2018-01-12T05:57:44.725Z,99.99
2018-01-12T05:58:44.701Z,99.99
2018-01-12T05:59:44.695Z,99.99
2018-01-12T06:00:44.649Z,99.99
2018-01-12T06:01:44.629Z,99.99
2018-01-12T06:02:44.609Z,99.99
2018-01-12T06:03:44.588Z,99.99
2018-01-12T06:04:44.593Z,99.99
2018-01-12T06:05:44.573Z,99.99
2018-01-12T06:06:44.532Z,99.99
2018-01-12T06:07:44.509Z,99.99
2018-01-12T06:08:44.512Z,99.99
2018-01-12T06:09:44.474Z,99.99
2018-01-12T06:10:44.448Z,99.99
2018-01-12T06:11:44.454Z,99.99
2018-01-12T06:12:44.407Z,99.99
2018-01-12T06:13:44.386Z,99.99
2018-01-12T06:14:44.397Z,99.99
2018-01-12T06:15:44.373Z,99.99
2018-01-12T06:16:44.328Z,99.99
2018-01-12T06:17:44.303Z,99.99
2018-01-12T06:18:44.287Z,99.99
2018-01-12T06:19:44.275Z,99.99
2018-01-12T06:20:44.271Z,99.99
2018-01-12T06:21:44.222Z,99.99
2018-01-12T06:22:44.235Z,99.99
2018-01-12T06:23:44.213Z,99.99
2018-01-12T06:24:44.189Z,99.99
2018-01-12T06:25:44.145Z,99.99
2018-01-12T06:26:44.120Z,99.99
2018-01-12T06:27:44.125Z,99.99
2018-01-12T06:28:44.107Z,99.99
2018-01-12T06:29:44.085Z,99.99
2018-01-12T06:30:44.046Z,99.99
2018-01-12T06:31:44.025Z,99.99
2018-01-12T06:32:44.026Z,99.99
2018-01-12T06:33:43.974Z,99.99
2018-01-12T06:34:43.964Z,99.99
2018-01-12T06:35:43.936Z,99.99
2018-01-12T06:36:43.922Z,99.99
2018-01-12T06:37:43.895Z,99.99
2018-01-12T06:38:43.870Z,99.99
2018-01-12T06:39:43.859Z,99.99
2018-01-12T06:40:43.849Z,99.99
2018-01-12T06:41:43.843Z,99.99
2018-01-12T06:42:43.800Z,99.99
2018-01-12T06:43:43.784Z,99.99
2018-01-12T06:44:43.778Z,99.99
2018-01-12T06:45:43.744Z,99.99
2018-01-12T06:46:43.719Z,99.99
2018-01-12T06:47:43.703Z,99.99
2018-01-12T06:48:43.701Z,99.99
2018-01-12T06:49:43.677Z,99.99
2018-01-12T06:50:43.634Z,99.99
2018-01-12T06:51:43.621Z,99.99
2018-01-12T06:52:43.594Z,99.99
2018-01-12T06:53:43.573Z,99.99
2018-01-12T06:54:43.562Z,99.99
2018-01-12T06:55:43.559Z,99.99
2018-01-12T06:56:43.523Z,99.99
2018-01-12T06:57:43.513Z,99.99
2018-01-12T06:58:43.468Z,99.99
2018-01-12T06:59:43.467Z,99.99
2018-01-12T07:00:43.456Z,99.99
2018-01-12T07:01:43.863Z,99.99
2018-01-12T07:02:43.415Z,99.99
2018-01-12T07:03:43.365Z,99.99
2018-01-12T07:04:43.379Z,99.99
2018-01-12T07:05:43.350Z,99.99
2018-01-12T07:06:43.330Z,99.99
2018-01-12T07:07:43.289Z,99.99
2018-01-12T07:08:43.269Z,99.99
2018-01-12T07:09:43.251Z,99.99
2018-01-12T07:10:43.223Z,99.99
2018-01-12T07:11:43.205Z,99.99
2018-01-12T07:12:43.210Z,99.99
2018-01-12T07:13:43.168Z,99.99
2018-01-12T07:14:43.140Z,99.99
2018-01-12T07:15:43.153Z,99.99
2018-01-12T07:16:43.103Z,99.99
2018-01-12T07:17:43.082Z,99.99
2018-01-12T07:18:43.317Z,99.99
2018-01-12T07:19:43.071Z,99.99
2018-01-12T07:20:43.018Z,99.99
2018-01-12T07:21:43.027Z,99.99
2018-01-12T07:22:42.990Z,99.99
2018-01-12T07:23:42.957Z,99.99
2018-01-12T07:24:42.936Z,99.99
2018-01-12T07:25:42.919Z,99.99
2018-01-12T07:26:42.912Z,99.99
2018-01-12T07:27:42.879Z,99.99
2018-01-12T07:28:42.856Z,99.99
2018-01-12T07:29:42.837Z,99.99
2018-01-12T07:30:42.812Z,99.99
2018-01-12T07:31:42.861Z,99.99
2018-01-12T07:32:42.777Z,99.99
2018-01-12T07:33:42.762Z,99.99
2018-01-12T07:34:42.758Z,99.99
2018-01-12T07:35:42.739Z,99.99
2018-01-12T07:36:42.762Z,99.99
2018-01-12T07:37:42.675Z,99.99
2018-01-12T07:38:42.667Z,99.99
2018-01-12T07:39:42.627Z,99.99
2018-01-12T07:40:42.611Z,99.99
2018-01-12T07:41:42.588Z,99.99
2018-01-12T07:42:42.595Z,99.99
2018-01-12T07:43:42.548Z,99.99
2018-01-12T07:44:42.627Z,99.99
2018-01-12T07:45:42.508Z,99.99
2018-01-12T07:46:42.521Z,99.99
2018-01-12T07:47:42.493Z,99.99
2018-01-12T07:48:42.472Z,99.99
2018-01-12T07:49:42.456Z,99.99
2018-01-12T07:50:42.436Z,99.99
2018-01-12T07:51:42.419Z,99.99
2018-01-12T07:52:42.370Z,99.99
2018-01-12T07:53:42.351Z,99.99
2018-01-12T07:54:42.340Z,99.99
2018-01-12T07:55:42.333Z,99.99
2018-01-12T07:56:42.284Z,99.99
2018-01-12T07:57:42.267Z,99.99
2018-01-12T07:58:42.247Z,99.99
2018-01-12T07:59:42.251Z,99.99
2018-01-12T08:00:42.205Z,99.99
2018-01-12T08:01:42.213Z,99.99
2018-01-12T08:02:42.189Z,99.99
2018-01-12T08:03:42.142Z,99.99
2018-01-12T08:04:42.147Z,99.99
2018-01-12T08:05:42.105Z,99.99
2018-01-12T08:06:42.084Z,99.99
2018-01-12T08:07:42.060Z,99.99
2018-01-12T08:08:42.043Z,99.99
2018-01-12T08:09:42.048Z,99.99
2018-01-12T08:10:42.005Z,99.99
2018-01-12T08:11:41.981Z,99.99
2018-01-12T08:12:41.988Z,99.99
2018-01-12T08:13:41.951Z,99.99
2018-01-12T08:14:41.918Z,99.99
2018-01-12T08:15:41.913Z,99.99
2018-01-12T08:16:41.886Z,99.99
2018-01-12T08:17:41.863Z,99.99
2018-01-12T08:18:41.851Z,99.99
2018-01-12T08:19:41.846Z,99.99
2018-01-12T08:20:41.998Z,99.99
2018-01-12T08:21:41.776Z,99.99
2018-01-12T08:22:41.772Z,99.99
2018-01-12T08:23:41.745Z,99.99
2018-01-12T08:24:41.719Z,99.99
2018-01-12T08:25:41.701Z,99.99
2018-01-12T08:26:41.675Z,99.99
2018-01-12T08:27:41.688Z,99.99
2018-01-12T08:28:41.641Z,99.99
2018-01-12T08:29:41.622Z,99.99
2018-01-12T08:30:41.622Z,99.99
2018-01-12T08:31:41.572Z,99.99
2018-01-12T08:32:41.567Z,99.99
2018-01-12T08:33:41.533Z,99.99
2018-01-12T08:34:41.514Z,99.99
2018-01-12T08:35:41.491Z,99.99
2018-01-12T08:36:41.477Z,99.99
2018-01-12T08:37:41.464Z,99.99
2018-01-12T08:38:41.466Z,99.99
2018-01-12T08:39:41.427Z,99.99
2018-01-12T08:40:41.419Z,99.99
2018-01-12T08:41:41.387Z,99.99
2018-01-12T08:42:41.351Z,99.99
2018-01-12T08:43:41.335Z,99.99
2018-01-12T08:44:41.339Z,99.99
2018-01-12T08:45:41.294Z,99.99
2018-01-12T08:46:41.269Z,99.99
2018-01-12T08:47:41.500Z,99.99
2018-01-12T08:48:41.235Z,99.99
2018-01-12T08:49:41.214Z,99.99
2018-01-12T08:50:41.189Z,99.99
2018-01-12T08:51:41.164Z,99.99
2018-01-12T08:52:41.175Z,99.99
2018-01-12T08:53:41.131Z,99.99
2018-01-12T08:54:41.133Z,99.99
2018-01-12T08:55:41.086Z,99.99
2018-01-12T08:56:41.066Z,99.99
2018-01-12T08:57:41.074Z,99.99
2018-01-12T08:58:41.038Z,99.99
2018-01-12T08:59:41.016Z,99.99
2018-01-12T09:00:40.995Z,99.99
2018-01-12T09:01:40.976Z,99.99
2018-01-12T09:02:40.976Z,99.99
2018-01-12T09:03:40.970Z,99.99
2018-01-12T09:04:40.931Z,99.99
2018-01-12T09:05:40.896Z,99.99
2018-01-12T09:06:40.894Z,99.99
2018-01-12T09:07:40.848Z,99.99
2018-01-12T09:08:40.824Z,99.99
2018-01-12T09:09:40.816Z,99.99
2018-01-12T09:10:40.788Z,99.99
2018-01-12T09:11:40.775Z,99.99
2018-01-12T09:12:40.740Z,99.99
2018-01-12T09:13:41.279Z,99.99
2018-01-12T09:14:40.727Z,99.99
2018-01-12T09:15:40.708Z,99.99
2018-01-12T09:16:40.668Z,99.99
2018-01-12T09:17:40.641Z,99.99
2018-01-12T09:18:40.628Z,99.99
2018-01-12T09:19:40.600Z,99.99
2018-01-12T09:20:40.580Z,99.99
2018-01-12T09:21:40.559Z,99.99
2018-01-12T09:22:40.540Z,99.99
2018-01-12T09:23:40.531Z,99.99
2018-01-12T09:24:40.495Z,99.99
2018-01-12T09:25:40.491Z,99.99
2018-01-12T09:26:40.459Z,99.99
2018-01-12T09:27:40.463Z,99.99
2018-01-12T09:28:40.422Z,99.99
2018-01-12T09:29:40.395Z,99.99
2018-01-12T09:30:40.908Z,99.99
2018-01-12T09:31:40.355Z,99.99
2018-01-12T09:32:40.350Z,99.99
2018-01-12T09:33:40.316Z,99.99
2018-01-12T09:34:40.329Z,99.99
2018-01-12T09:35:40.278Z,99.99
2018-01-12T09:36:40.284Z,99.99
2018-01-12T09:37:40.248Z,99.99
2018-01-12T09:38:40.216Z,99.78
2018-01-12T09:39:40.197Z,99.98
2018-01-12T09:40:40.181Z,99.99
2018-01-12T09:41:40.191Z,99.99
2018-01-12T09:42:40.166Z,99.99
2018-01-12T09:43:40.118Z,99.88
2018-01-12T09:44:40.102Z,99.78
2018-01-12T09:45:40.084Z,99.59
2018-01-12T09:46:40.064Z,99.78
2018-01-12T09:47:40.040Z,98.49
2018-01-12T09:48:40.054Z,98.29
2018-01-12T09:49:40.031Z,99.01
2018-01-12T09:50:39.987Z,98.29
2018-01-12T09:51:40.017Z,98.87
2018-01-12T09:52:39.969Z,97.62
2018-01-12T09:53:39.950Z,98.58
2018-01-12T09:54:39.909Z,97.14
2018-01-12T09:55:39.894Z,96.70
2018-01-12T09:56:39.895Z,96.80
2018-01-12T09:57:39.850Z,96.75
2018-01-12T09:58:39.840Z,96.75
2018-01-12T09:59:39.836Z,96.70
2018-01-12T10:00:39.820Z,97.91
2018-01-12T10:01:39.775Z,97.33
2018-01-12T10:02:39.753Z,97.04
2018-01-12T10:03:39.764Z,96.99
2018-01-12T10:04:39.744Z,96.94
2018-01-12T10:05:40.003Z,97.91
2018-01-12T10:06:39.700Z,96.75
2018-01-12T10:07:39.687Z,97.14
2018-01-12T10:08:39.639Z,96.37
2018-01-12T10:09:39.643Z,96.08
2018-01-12T10:10:39.623Z,96.37
2018-01-12T10:11:39.603Z,96.08
2018-01-12T10:12:39.563Z,96.46
2018-01-12T10:13:39.567Z,97.42
2018-01-12T10:14:39.520Z,96.75
2018-01-12T10:15:39.526Z,96.08
2018-01-12T10:16:39.494Z,96.56
2018-01-12T10:17:39.462Z,96.85
2018-01-12T10:18:39.457Z,96.51
2018-01-12T10:19:39.453Z,97.14
2018-01-12T10:20:39.405Z,96.99
2018-01-12T10:21:39.411Z,97.04
2018-01-12T10:22:39.374Z,96.37
2018-01-12T10:23:39.347Z,96.94
2018-01-12T10:24:39.331Z,96.08
2018-01-12T10:25:39.335Z,96.17
2018-01-12T10:26:39.298Z,96.56
2018-01-12T10:27:39.267Z,96.37
2018-01-12T10:28:39.279Z,96.85
2018-01-12T10:29:39.230Z,96.66
2018-01-12T10:30:39.242Z,96.27
2018-01-12T10:31:39.223Z,96.27
2018-01-12T10:32:39.178Z,96.75
2018-01-12T10:33:39.181Z,96.37
2018-01-12T10:34:39.140Z,96.85
2018-01-12T10:35:39.117Z,95.98
2018-01-12T10:36:39.127Z,96.56
2018-01-12T10:37:39.083Z,96.27
2018-01-12T10:38:39.090Z,95.98
2018-01-12T10:39:39.069Z,96.85
2018-01-12T10:40:39.031Z,96.17
2018-01-12T10:41:39.006Z,95.12
2018-01-12T10:42:39.014Z,95.40
2018-01-12T10:43:38.994Z,95.60
2018-01-12T10:44:38.975Z,95.21
2018-01-12T10:45:38.953Z,95.50
2018-01-12T10:46:38.964Z,95.50
2018-01-12T10:47:38.893Z,95.12
2018-01-12T10:48:38.882Z,95.02
2018-01-12T10:49:38.868Z,95.12
2018-01-12T10:50:38.836Z,95.21
2018-01-12T10:51:38.813Z,95.31
2018-01-12T10:52:38.799Z,95.21
2018-01-12T10:53:38.807Z,94.82
2018-01-12T10:54:38.751Z,94.82
2018-01-12T10:55:38.766Z,94.34
2018-01-12T10:56:38.718Z,95.21
2018-01-12T10:57:38.712Z,95.12
2018-01-12T10:58:38.691Z,94.73
2018-01-12T10:59:38.665Z,94.64
2018-01-12T11:00:38.672Z,94.64
2018-01-12T11:01:38.634Z,94.64
2018-01-12T11:02:38.606Z,94.44
2018-01-12T11:03:38.592Z,94.39
2018-01-12T11:04:38.592Z,94.25
2018-01-12T11:05:38.575Z,93.57
2018-01-12T11:06:38.546Z,94.78
2018-01-12T11:07:38.510Z,93.62
2018-01-12T11:08:38.519Z,93.81
2018-01-12T11:09:38.499Z,93.04
2018-01-12T11:10:38.461Z,93.81
2018-01-12T11:11:38.434Z,93.81
2018-01-12T11:12:38.411Z,93.14
2018-01-12T11:13:38.399Z,92.94
2018-01-12T11:14:38.378Z,93.14
2018-01-12T11:15:38.365Z,93.04
2018-01-12T11:16:38.356Z,92.66
2018-01-12T11:17:38.323Z,92.61
2018-01-12T11:18:38.317Z,91.45
2018-01-12T11:19:38.313Z,90.58
2018-01-12T11:20:38.291Z,90.88
2018-01-12T11:21:38.252Z,90.20
2018-01-12T11:22:38.260Z,91.06
2018-01-12T11:23:38.211Z,91.45
2018-01-12T11:24:38.200Z,90.48
2018-01-12T11:25:38.175Z,90.68
2018-01-12T11:26:38.165Z,90.58
2018-01-12T11:27:38.142Z,89.67
2018-01-12T11:28:38.128Z,90.05
2018-01-12T11:29:38.105Z,88.99
2018-01-12T11:30:38.090Z,88.70
2018-01-12T11:31:38.072Z,88.26
2018-01-12T11:32:38.052Z,87.88
2018-01-12T11:33:38.075Z,86.91
2018-01-12T11:34:38.045Z,86.24
2018-01-12T11:35:38.006Z,86.04
2018-01-12T11:36:37.990Z,86.82
2018-01-12T11:37:37.997Z,87.59
2018-01-12T11:38:37.966Z,86.91
2018-01-12T11:39:37.962Z,86.43
2018-01-12T11:40:37.942Z,87.40
2018-01-12T11:41:37.900Z,86.62
2018-01-12T11:42:37.895Z,86.43
2018-01-12T11:43:37.878Z,86.14
2018-01-12T11:44:37.881Z,87.30
2018-01-12T11:45:37.850Z,86.52
2018-01-12T11:46:37.820Z,86.33
2018-01-12T11:47:37.803Z,86.82
2018-01-12T11:48:37.819Z,87.88
2018-01-12T11:49:37.775Z,86.91
2018-01-12T11:50:37.780Z,85.66
2018-01-12T11:51:37.764Z,86.52
2018-01-12T11:52:37.733Z,86.14
2018-01-12T11:53:37.709Z,85.66
2018-01-12T11:54:37.722Z,85.94
2018-01-12T11:55:37.700Z,85.75
2018-01-12T11:56:37.664Z,85.56
2018-01-12T11:57:37.643Z,86.14
2018-01-12T11:58:37.652Z,85.17
2018-01-12T11:59:37.639Z,85.75
2018-01-12T12:00:37.618Z,86.91
2018-01-12T12:01:37.573Z,86.52
2018-01-12T12:02:37.569Z,85.60
2018-01-12T12:03:37.551Z,84.54
2018-01-12T12:04:37.536Z,85.60
2018-01-12T12:05:37.505Z,84.16
2018-01-12T12:06:37.520Z,84.74
2018-01-12T12:07:37.476Z,82.51
2018-01-12T12:08:37.461Z,81.74
2018-01-12T12:09:37.470Z,81.55
2018-01-12T12:10:37.432Z,81.65
2018-01-12T12:11:37.434Z,80.97
2018-01-12T12:12:37.417Z,80.58
2018-01-12T12:13:37.378Z,81.55
2018-01-12T12:14:37.359Z,80.58
2018-01-12T12:15:37.356Z,80.78
2018-01-12T12:16:37.331Z,79.91
2018-01-12T12:17:37.328Z,79.62
2018-01-12T12:18:37.322Z,80.97
2018-01-12T12:19:37.277Z,81.40
2018-01-12T12:20:37.276Z,81.20
2018-01-12T12:21:37.246Z,79.89
2018-01-12T12:22:37.236Z,78.29
2018-01-12T12:23:37.239Z,77.13
2018-01-12T12:24:37.228Z,76.74
2018-01-12T12:25:37.188Z,76.93
2018-01-12T12:26:37.201Z,77.42
2018-01-12T12:27:37.159Z,76.93
2018-01-12T12:28:37.170Z,77.32
2018-01-12T12:29:37.130Z,78.19
2018-01-12T12:30:37.121Z,78.00
2018-01-12T12:31:37.100Z,78.96
2018-01-12T12:32:37.116Z,78.48
2018-01-12T12:33:37.073Z,77.51
2018-01-12T12:34:37.068Z,78.77
2018-01-12T12:35:37.070Z,78.58
2018-01-12T12:36:37.040Z,79.12
2018-01-12T12:37:37.043Z,79.41
2018-01-12T12:38:37.548Z,80.47
2018-01-12T12:39:36.996Z,79.64
2018-01-12T12:40:36.975Z,77.17
2018-01-12T12:41:36.966Z,77.61
2018-01-12T12:42:36.959Z,79.60
2018-01-12T12:43:36.938Z,81.11
2018-01-12T12:44:36.931Z,82.94
2018-01-12T12:45:36.916Z,83.77
2018-01-12T12:46:36.890Z,83.52
2018-01-12T12:47:36.902Z,84.10
2018-01-12T12:48:36.884Z,84.20
2018-01-12T12:49:36.869Z,83.66
2018-01-12T12:50:36.827Z,83.66
2018-01-12T12:51:36.818Z,83.33
2018-01-12T12:52:36.828Z,85.21